createdAt,value
2018-06-08T00:01:05.045Z,4.37
2018-06-08T00:05:59.602Z,3.87
2018-06-08T00:10:54.550Z,3.50
2018-06-08T00:15:49.115Z,3.57
2018-06-08T00:20:43.681Z,4.63
2018-06-08T00:25:38.230Z,3.93
2018-06-08T00:30:32.774Z,7.10
2018-06-08T00:35:27.375Z,4.93
2018-06-08T00:40:21.930Z,3.97
2018-06-08T00:45:16.493Z,3.87
2018-06-08T00:50:11.061Z,4.30
2018-06-08T00:55:05.882Z,4.87
2018-06-08T01:00:00.411Z,5.80
2018-06-08T01:04:54.996Z,4.53
2018-06-08T01:09:49.530Z,4.47
2018-06-08T01:14:44.109Z,4.37
2018-06-08T01:19:38.831Z,4.60
2018-06-08T01:24:33.995Z,4.23
2018-06-08T01:29:28.550Z,4.73
2018-06-08T01:34:23.132Z,4.27
2018-06-08T01:39:17.697Z,3.60
2018-06-08T01:44:12.258Z,4.80
2018-06-08T01:49:06.882Z,5.50
2018-06-08T01:54:01.404Z,5.47
2018-06-08T01:58:56.007Z,4.40
2018-06-08T02:03:50.557Z,3.80
2018-06-08T02:08:45.070Z,3.93
2018-06-08T02:13:39.602Z,6.57
2018-06-08T02:18:34.123Z,4.77
2018-06-08T02:23:28.709Z,4.37
2018-06-08T02:28:23.272Z,3.90
2018-06-08T02:33:17.814Z,6.10
2018-06-08T02:38:12.397Z,4.27
2018-06-08T02:43:06.941Z,3.90
2018-06-08T02:48:01.504Z,5.37
2018-06-08T02:52:56.031Z,6.30
2018-06-08T02:57:50.586Z,4.93
2018-06-08T03:02:45.120Z,5.23
2018-06-08T03:07:39.661Z,3.80
2018-06-08T03:12:34.210Z,4.50
2018-06-08T03:17:28.769Z,3.83
2018-06-08T03:22:23.304Z,4.93
2018-06-08T03:27:17.935Z,4.27
2018-06-08T03:32:12.487Z,3.57
2018-06-08T03:37:07.047Z,6.30
2018-06-08T03:42:01.570Z,4.77
2018-06-08T03:46:56.119Z,3.73
2018-06-08T03:51:50.661Z,4.67
2018-06-08T03:56:48.526Z,4.33
2018-06-08T04:01:43.077Z,5.03
2018-06-08T04:06:37.683Z,3.50
2018-06-08T04:11:32.329Z,3.37
2018-06-08T04:16:26.889Z,3.17
2018-06-08T04:21:21.475Z,4.83
2018-06-08T04:26:16.059Z,3.27
2018-06-08T04:31:10.623Z,2.97
2018-06-08T04:36:06.524Z,2.37
2018-06-08T04:41:01.161Z,3.40
2018-06-08T04:45:55.703Z,3.60
2018-06-08T04:50:50.307Z,2.53
2018-06-08T04:55:44.537Z,2.47
2018-06-08T05:00:39.083Z,2.50
2018-06-08T05:05:33.619Z,3.57
2018-06-08T05:10:28.167Z,3.00
2018-06-08T05:15:22.703Z,3.27
2018-06-08T05:20:17.279Z,5.27
2018-06-08T05:25:11.822Z,5.00
2018-06-08T05:30:13.519Z,5.80
2018-06-08T05:35:08.107Z,4.53
2018-06-08T05:40:02.678Z,5.10
2018-06-08T05:44:56.916Z,5.07
2018-06-08T05:49:51.459Z,5.47
2018-06-08T05:54:46.012Z,5.13
2018-06-08T05:59:40.577Z,4.30
2018-06-08T06:04:35.103Z,3.37
2018-06-08T06:09:29.665Z,5.70
2018-06-08T06:14:24.216Z,4.73
2018-06-08T06:19:18.738Z,4.13
2018-06-08T06:24:13.286Z,4.47
2018-06-08T06:29:06.805Z,3.90
2018-06-08T06:34:01.343Z,4.10
2018-06-08T06:38:55.942Z,5.47
2018-06-08T06:43:50.511Z,4.07
2018-06-08T06:48:45.231Z,6.93
2018-06-08T06:53:39.828Z,4.20
2018-06-08T06:58:34.431Z,6.67
2018-06-08T07:03:29.028Z,5.67
2018-06-08T07:08:23.559Z,4.67
2018-06-08T07:13:18.074Z,6.63
2018-06-08T07:18:12.641Z,5.77
2018-06-08T07:23:07.174Z,5.73
2018-06-08T07:28:01.759Z,5.47
2018-06-08T07:32:56.286Z,5.57
2018-06-08T07:37:50.864Z,7.62
2018-06-08T07:42:45.416Z,6.72
2018-06-08T07:47:40.008Z,6.75
2018-06-08T07:52:34.593Z,5.95
2018-06-08T07:57:29.165Z,6.50
2018-06-08T08:02:23.710Z,8.25
2018-06-08T08:07:18.475Z,7.42
2018-06-08T08:12:12.986Z,7.87
2018-06-08T08:17:07.566Z,7.70
2018-06-08T08:22:02.144Z,9.58
2018-06-08T08:26:56.633Z,8.65
2018-06-08T08:31:51.135Z,11.55
2018-06-08T08:36:45.716Z,8.83
2018-06-08T08:41:40.284Z,9.58
2018-06-08T08:46:34.870Z,7.00
2018-06-08T08:51:29.484Z,9.10
2018-06-08T08:56:23.955Z,7.22
2018-06-08T09:01:18.490Z,10.78
2018-06-08T09:06:13.023Z,9.68
2018-06-08T09:11:07.609Z,9.48
2018-06-08T09:16:02.177Z,10.13
2018-06-08T09:20:56.662Z,9.40
2018-06-08T09:25:51.181Z,9.38
2018-06-08T09:30:45.676Z,11.63
2018-06-08T09:35:40.180Z,9.90
2018-06-08T09:40:34.697Z,9.35
2018-06-08T09:45:29.225Z,11.80
2018-06-08T09:50:24.826Z,9.58
2018-06-08T09:55:19.385Z,10.98
2018-06-08T10:00:18.003Z,10.32
2018-06-08T10:05:12.592Z,8.20
2018-06-08T10:10:07.105Z,7.75
2018-06-08T10:15:01.611Z,8.53
2018-06-08T10:19:56.117Z,11.48
2018-06-08T10:24:50.651Z,9.45
2018-06-08T10:29:45.202Z,9.80
2018-06-08T10:34:39.710Z,9.35
2018-06-08T10:39:34.220Z,10.28
2018-06-08T10:44:28.754Z,9.93
2018-06-08T10:49:23.314Z,9.68
2018-06-08T10:54:17.861Z,9.53
2018-06-08T10:59:12.364Z,8.48
2018-06-08T11:04:06.985Z,9.35
2018-06-08T11:09:01.523Z,10.13
2018-06-08T11:13:56.085Z,7.75
2018-06-08T11:18:50.600Z,8.93
2018-06-08T11:23:45.145Z,9.10
2018-06-08T11:28:39.658Z,8.63
2018-06-08T11:33:34.197Z,8.88
2018-06-08T11:38:28.722Z,7.28
2018-06-08T11:43:23.214Z,8.35
2018-06-08T11:48:17.762Z,7.62
2018-06-08T11:53:12.298Z,8.33
2018-06-08T11:58:06.834Z,9.50
2018-06-08T12:03:01.367Z,7.85
2018-06-08T12:07:55.880Z,9.23
2018-06-08T12:12:50.388Z,5.97
2018-06-08T12:17:44.950Z,6.65
2018-06-08T12:22:39.561Z,6.50
2018-06-08T12:27:34.086Z,6.67
2018-06-08T12:32:28.643Z,7.97
2018-06-08T12:37:23.183Z,6.10
2018-06-08T12:42:17.727Z,6.65
2018-06-08T12:47:12.330Z,7.03
2018-06-08T12:52:06.914Z,8.38
2018-06-08T12:57:01.487Z,5.90
2018-06-08T13:01:56.064Z,5.95
2018-06-08T13:06:50.671Z,6.67
2018-06-08T13:11:45.243Z,6.30
2018-06-08T13:16:39.819Z,6.00
2018-06-08T13:21:34.451Z,5.80
2018-06-08T13:26:29.026Z,7.30
2018-06-08T13:31:23.574Z,9.95
2018-06-08T13:36:18.192Z,5.37
2018-06-08T13:41:12.764Z,5.60
2018-06-08T13:46:23.881Z,5.62
2018-06-08T13:51:18.542Z,5.97
2018-06-08T13:56:13.127Z,6.17
2018-06-08T14:01:07.734Z,5.58
2018-06-08T14:06:02.279Z,7.10
2018-06-08T14:10:56.839Z,5.37
2018-06-08T14:15:51.454Z,5.20
2018-06-08T14:20:46.001Z,5.03
2018-06-08T14:25:40.595Z,4.60
2018-06-08T14:30:35.202Z,5.20
2018-06-08T14:35:29.763Z,5.08
2018-06-08T14:40:24.335Z,6.15
2018-06-08T14:45:19.009Z,6.45
2018-06-08T14:50:13.615Z,6.78
2018-06-08T14:55:08.268Z,6.85
2018-06-08T15:00:02.908Z,8.65
2018-06-08T15:04:57.567Z,13.65
2018-06-08T15:09:52.286Z,17.95
2018-06-08T15:14:46.854Z,15.50
2018-06-08T15:19:41.585Z,9.60
2018-06-08T15:24:38.475Z,10.15
2018-06-08T15:29:33.030Z,6.85
2018-06-08T15:34:27.696Z,6.87
2018-06-08T15:39:22.524Z,5.57
2018-06-08T15:44:17.150Z,7.17
2018-06-08T15:49:11.787Z,6.07
2018-06-08T15:54:06.389Z,4.80
2018-06-08T15:59:01.002Z,6.70
2018-06-08T16:03:55.684Z,6.33
2018-06-08T16:08:50.420Z,7.07
2018-06-08T16:13:46.059Z,4.73
2018-06-08T16:18:40.850Z,4.63
2018-06-08T16:23:35.485Z,7.53
2018-06-08T16:28:30.173Z,5.47
2018-06-08T16:33:24.827Z,6.00
2018-06-08T16:38:19.515Z,9.13
2018-06-08T16:43:14.266Z,7.27
2018-06-08T16:48:09.058Z,6.07
2018-06-08T16:53:04.015Z,7.60
2018-06-08T16:57:58.854Z,7.43
2018-06-08T17:02:53.738Z,5.27
2018-06-08T17:07:48.632Z,7.03
2018-06-08T17:12:43.648Z,6.87
2018-06-08T17:17:38.689Z,7.60
2018-06-08T17:22:33.697Z,7.97
2018-06-08T17:27:31.869Z,9.13
2018-06-08T17:32:27.102Z,7.40
2018-06-08T17:37:22.680Z,11.47
2018-06-08T17:42:46.132Z,9.57
2018-06-08T17:48:04.794Z,9.67
2018-06-08T17:52:59.965Z,11.53
2018-06-08T17:58:01.707Z,8.90
2018-06-08T18:02:56.938Z,12.17
2018-06-08T18:07:52.098Z,9.30
2018-06-08T18:12:47.093Z,6.60
2018-06-08T18:18:06.298Z,6.77
2018-06-08T18:23:01.551Z,9.47
2018-06-08T18:27:57.033Z,9.20
2018-06-08T18:33:05.504Z,8.30
2018-06-08T18:38:05.169Z,8.40
2018-06-08T18:43:16.809Z,7.93
2018-06-08T18:53:36.296Z,9.70
2018-06-08T18:58:31.535Z,8.07
2018-06-08T19:03:32.616Z,7.57
2018-06-08T19:08:42.463Z,8.73
2018-06-08T19:13:41.977Z,9.43
2018-06-08T19:18:37.104Z,8.03
2018-06-08T19:23:32.272Z,11.40
2018-06-08T19:28:27.352Z,7.57
2018-06-08T19:33:22.659Z,9.20
2018-06-08T19:38:17.875Z,9.80
2018-06-08T19:43:12.995Z,11.37
2018-06-08T19:48:09.483Z,7.73
2018-06-08T19:53:04.649Z,8.33
2018-06-08T19:57:59.885Z,7.43
2018-06-08T20:02:54.962Z,8.83
2018-06-08T20:07:50.136Z,10.30
2018-06-08T20:12:45.477Z,10.53
2018-06-08T20:17:40.648Z,7.43
2018-06-08T20:22:35.707Z,9.20
2018-06-08T20:27:32.064Z,9.50
2018-06-08T20:32:26.969Z,8.50
2018-06-08T20:37:21.926Z,10.63
2018-06-08T20:42:17.087Z,10.03
2018-06-08T20:47:11.872Z,7.43
2018-06-08T20:52:06.936Z,9.13
2018-06-08T20:57:19.244Z,7.80
2018-06-08T21:02:14.308Z,7.73
2018-06-08T21:07:09.104Z,6.50
2018-06-08T21:12:04.140Z,6.70
2018-06-08T21:16:59.076Z,7.97
2018-06-08T21:21:54.028Z,7.33
2018-06-08T21:26:49.031Z,7.13
2018-06-08T21:31:44.150Z,8.07
2018-06-08T21:36:54.562Z,7.23
2018-06-08T21:41:49.631Z,6.50
2018-06-08T21:46:44.549Z,7.30
2018-06-08T21:51:39.542Z,4.97
2018-06-08T21:56:34.466Z,5.87
2018-06-08T22:01:29.575Z,7.77
2018-06-08T22:11:49.468Z,6.33
2018-06-08T22:16:44.589Z,6.57
2018-06-08T22:21:39.502Z,5.50
2018-06-08T22:26:34.503Z,5.23
2018-06-08T22:31:29.608Z,7.17
2018-06-08T22:36:25.740Z,6.03
2018-06-08T22:41:24.516Z,5.43
2018-06-08T22:51:38.848Z,3.93
2018-06-08T22:56:33.985Z,4.90
2018-06-08T23:01:28.914Z,6.57
2018-06-08T23:06:23.804Z,6.40
2018-06-08T23:11:18.829Z,7.57
2018-06-08T23:16:13.764Z,9.00
2018-06-08T23:21:08.720Z,7.80
2018-06-08T23:26:03.812Z,8.80
2018-06-08T23:30:58.835Z,10.27
2018-06-08T23:35:53.859Z,11.03
2018-06-08T23:40:48.869Z,13.67
2018-06-08T23:45:43.842Z,14.90
2018-06-08T23:50:38.916Z,14.47
2018-06-08T23:55:33.831Z,13.97
